createdAt,value
2019-03-15T00:00:37.783Z,81.88
2019-03-15T00:01:37.733Z,81.77
2019-03-15T00:02:37.744Z,81.05
2019-03-15T00:03:37.728Z,81.77
2019-03-15T00:04:40.033Z,80.95
2019-03-15T00:05:37.685Z,80.33
2019-03-15T00:06:37.785Z,80.19
2019-03-15T00:07:37.720Z,80.13
2019-03-15T00:08:37.963Z,79.82
2019-03-15T00:09:37.634Z,79.41
2019-03-15T00:10:37.622Z,79.00
2019-03-15T00:11:37.617Z,79.06
2019-03-15T00:12:37.621Z,79.10
2019-03-15T00:13:38.548Z,79.61
2019-03-15T00:14:37.591Z,79.61
2019-03-15T00:15:37.574Z,79.30
2019-03-15T00:16:37.566Z,79.00
2019-03-15T00:17:37.580Z,78.89
2019-03-15T00:18:37.562Z,78.79
2019-03-15T00:19:37.534Z,79.20
2019-03-15T00:20:37.515Z,79.30
2019-03-15T00:21:37.508Z,78.89
2019-03-15T00:22:37.520Z,78.89
2019-03-15T00:23:38.508Z,78.89
2019-03-15T00:24:37.483Z,78.69
2019-03-15T00:25:37.462Z,78.17
2019-03-15T00:26:37.450Z,77.97
2019-03-15T00:27:37.433Z,78.38
2019-03-15T00:28:37.452Z,78.69
2019-03-15T00:29:37.419Z,78.38
2019-03-15T00:30:37.415Z,78.48
2019-03-15T00:31:37.673Z,78.58
2019-03-15T00:32:37.379Z,78.07
2019-03-15T00:33:37.419Z,78.48
2019-03-15T00:34:37.353Z,78.48
2019-03-15T00:35:37.345Z,78.38
2019-03-15T00:36:37.351Z,77.86
2019-03-15T00:37:37.326Z,77.97
2019-03-15T00:38:37.354Z,78.38
2019-03-15T00:39:37.562Z,78.38
2019-03-15T00:40:37.289Z,77.76
2019-03-15T00:41:37.274Z,77.97
2019-03-15T00:42:37.265Z,77.86
2019-03-15T00:43:37.270Z,77.86
2019-03-15T00:44:37.250Z,77.86
2019-03-15T00:45:37.235Z,78.07
2019-03-15T00:46:37.217Z,77.86
2019-03-15T00:47:37.228Z,77.66
2019-03-15T00:48:37.259Z,77.86
2019-03-15T00:49:37.178Z,77.76
2019-03-15T00:50:37.172Z,77.86
2019-03-15T00:51:37.175Z,77.97
2019-03-15T00:52:37.155Z,77.97
2019-03-15T00:53:37.158Z,78.14
2019-03-15T00:54:37.138Z,77.97
2019-03-15T00:55:37.127Z,77.76
2019-03-15T00:56:37.111Z,77.66
2019-03-15T00:57:37.102Z,77.76
2019-03-15T00:58:37.118Z,77.76
2019-03-15T00:59:37.080Z,77.86
2019-03-15T01:00:37.079Z,77.35
2019-03-15T01:01:37.051Z,77.97
2019-03-15T01:02:37.039Z,77.55
2019-03-15T01:03:37.106Z,77.97
2019-03-15T01:04:37.041Z,77.97
2019-03-15T01:05:37.006Z,77.76
2019-03-15T01:06:36.999Z,77.76
2019-03-15T01:07:36.983Z,77.76
2019-03-15T01:08:36.983Z,77.66
2019-03-15T01:09:36.978Z,77.86
2019-03-15T01:10:37.067Z,77.14
2019-03-15T01:11:36.934Z,77.25
2019-03-15T01:12:36.926Z,77.04
2019-03-15T01:13:37.125Z,77.25
2019-03-15T01:14:36.923Z,77.25
2019-03-15T01:15:36.899Z,78.17
2019-03-15T01:16:36.891Z,78.17
2019-03-15T01:17:36.869Z,77.76
2019-03-15T01:18:36.866Z,77.76
2019-03-15T01:19:37.071Z,77.25
2019-03-15T01:20:36.834Z,76.32
2019-03-15T01:21:36.830Z,76.63
2019-03-15T01:22:36.824Z,76.53
2019-03-15T01:23:36.802Z,76.53
2019-03-15T01:24:36.813Z,76.32
2019-03-15T01:25:36.780Z,76.21
2019-03-15T01:26:36.764Z,76.32
2019-03-15T01:27:36.760Z,76.32
2019-03-15T01:28:36.742Z,76.21
2019-03-15T01:29:36.755Z,76.53
2019-03-15T01:30:36.722Z,76.11
2019-03-15T01:31:36.718Z,76.32
2019-03-15T01:32:36.699Z,76.53
2019-03-15T01:33:36.697Z,75.77
2019-03-15T01:34:36.706Z,75.81
2019-03-15T01:35:36.669Z,75.90
2019-03-15T01:36:36.691Z,76.42
2019-03-15T01:37:36.650Z,76.21
2019-03-15T01:38:36.724Z,76.42
2019-03-15T01:39:36.768Z,76.53
2019-03-15T01:40:36.639Z,76.21
2019-03-15T01:41:36.594Z,76.32
2019-03-15T01:42:36.585Z,76.49
2019-03-15T01:43:36.575Z,76.32
2019-03-15T01:44:36.566Z,75.90
2019-03-15T01:45:36.566Z,75.90
2019-03-15T01:46:36.548Z,75.81
2019-03-15T01:47:36.543Z,75.81
2019-03-15T01:48:36.520Z,75.90
2019-03-15T01:49:36.518Z,76.01
2019-03-15T01:50:36.515Z,75.81
2019-03-15T01:51:36.492Z,75.90
2019-03-15T01:52:36.476Z,75.70
2019-03-15T01:53:36.464Z,76.21
2019-03-15T01:54:36.451Z,75.60
2019-03-15T01:55:36.493Z,75.18
2019-03-15T01:56:36.431Z,75.70
2019-03-15T01:57:36.416Z,76.11
2019-03-15T01:58:36.411Z,76.01
2019-03-15T01:59:36.431Z,75.81
2019-03-15T02:00:36.397Z,75.90
2019-03-15T02:01:36.371Z,76.21
2019-03-15T02:02:36.370Z,76.63
2019-03-15T02:03:36.350Z,76.21
2019-03-15T02:04:36.341Z,76.21
2019-03-15T02:05:36.344Z,76.63
2019-03-15T02:06:36.314Z,76.42
2019-03-15T02:07:36.324Z,76.42
2019-03-15T02:08:36.287Z,76.73
2019-03-15T02:09:36.284Z,77.04
2019-03-15T02:10:37.473Z,77.25
2019-03-15T02:11:36.254Z,77.97
2019-03-15T02:12:36.246Z,77.86
2019-03-15T02:13:36.347Z,77.86
2019-03-15T02:14:36.234Z,77.66
2019-03-15T02:15:36.240Z,77.86
2019-03-15T02:16:36.202Z,77.66
2019-03-15T02:17:36.194Z,77.66
2019-03-15T02:18:36.176Z,77.76
2019-03-15T02:19:36.194Z,77.76
2019-03-15T02:20:36.201Z,77.97
2019-03-15T02:21:36.146Z,77.86
2019-03-15T02:22:36.139Z,78.38
2019-03-15T02:23:36.127Z,78.17
2019-03-15T02:24:36.110Z,77.76
2019-03-15T02:25:36.114Z,78.07
2019-03-15T02:26:36.130Z,78.07
2019-03-15T02:27:36.079Z,78.28
2019-03-15T02:28:36.060Z,77.97
2019-03-15T02:29:36.064Z,77.76
2019-03-15T02:30:36.038Z,77.76
2019-03-15T02:31:36.050Z,77.86
2019-03-15T02:32:36.021Z,78.07
2019-03-15T02:33:36.008Z,77.97
2019-03-15T02:34:35.995Z,77.86
2019-03-15T02:35:36.002Z,78.28
2019-03-15T02:36:36.000Z,77.97
2019-03-15T02:37:35.960Z,77.66
2019-03-15T02:38:35.952Z,77.55
2019-03-15T02:39:37.148Z,78.07
2019-03-15T02:40:35.927Z,76.73
2019-03-15T02:41:35.949Z,76.73
2019-03-15T02:42:35.907Z,76.73
2019-03-15T02:43:35.894Z,76.93
2019-03-15T02:44:35.887Z,77.35
2019-03-15T02:45:35.870Z,77.66
2019-03-15T02:46:35.879Z,77.97
2019-03-15T02:47:35.864Z,77.66
2019-03-15T02:48:35.854Z,77.97
2019-03-15T02:49:35.825Z,78.07
2019-03-15T02:50:35.818Z,77.86
2019-03-15T02:51:35.826Z,77.66
2019-03-15T02:52:35.793Z,77.86
2019-03-15T02:53:35.797Z,77.86
2019-03-15T02:54:35.772Z,77.86
2019-03-15T02:55:35.758Z,77.66
2019-03-15T02:56:35.764Z,77.66
2019-03-15T02:57:36.005Z,77.66
2019-03-15T02:58:35.739Z,77.97
2019-03-15T02:59:35.714Z,77.86
2019-03-15T03:00:35.719Z,77.97
2019-03-15T03:01:35.715Z,77.66
2019-03-15T03:02:35.690Z,77.76
2019-03-15T03:03:35.669Z,77.45
2019-03-15T03:04:35.660Z,77.97
2019-03-15T03:05:35.653Z,77.66
2019-03-15T03:06:35.671Z,77.86
2019-03-15T03:07:35.628Z,78.07
2019-03-15T03:08:35.611Z,77.76
2019-03-15T03:09:35.614Z,77.86
2019-03-15T03:10:35.602Z,77.66
2019-03-15T03:11:35.585Z,77.76
2019-03-15T03:12:35.590Z,77.97
2019-03-15T03:13:35.567Z,77.76
2019-03-15T03:14:35.548Z,77.14
2019-03-15T03:15:35.538Z,77.04
2019-03-15T03:16:35.521Z,76.73
2019-03-15T03:17:35.629Z,77.25
2019-03-15T03:18:35.505Z,76.73
2019-03-15T03:19:35.485Z,76.21
2019-03-15T03:20:35.481Z,76.42
2019-03-15T03:21:35.464Z,76.53
2019-03-15T03:22:36.411Z,76.63
2019-03-15T03:23:35.441Z,76.42
2019-03-15T03:24:35.454Z,76.63
2019-03-15T03:25:35.412Z,76.73
2019-03-15T03:26:35.411Z,77.25
2019-03-15T03:27:35.420Z,76.93
2019-03-15T03:28:35.410Z,76.21
2019-03-15T03:29:35.402Z,76.01
2019-03-15T03:30:35.362Z,76.42
2019-03-15T03:31:35.377Z,76.42
2019-03-15T03:32:35.367Z,77.14
2019-03-15T03:33:35.349Z,77.66
2019-03-15T03:34:35.336Z,77.86
2019-03-15T03:35:35.308Z,78.07
2019-03-15T03:36:35.297Z,77.97
2019-03-15T03:37:35.305Z,78.07
2019-03-15T03:38:35.286Z,77.76
2019-03-15T03:39:35.267Z,77.97
2019-03-15T03:40:35.256Z,77.86
2019-03-15T03:41:35.238Z,78.48
2019-03-15T03:42:35.283Z,78.38
2019-03-15T03:43:35.223Z,78.69
2019-03-15T03:44:35.227Z,78.69
2019-03-15T03:45:35.189Z,78.48
2019-03-15T03:46:35.200Z,78.07
2019-03-15T03:47:35.202Z,78.48
2019-03-15T03:48:35.519Z,77.97
2019-03-15T03:49:35.165Z,77.55
2019-03-15T03:50:35.138Z,77.66
2019-03-15T03:51:35.123Z,77.97
2019-03-15T03:52:35.147Z,77.76
2019-03-15T03:53:35.108Z,78.07
2019-03-15T03:54:35.099Z,78.58
2019-03-15T03:55:35.073Z,78.58
2019-03-15T03:56:35.068Z,78.58
2019-03-15T03:57:35.059Z,78.58
2019-03-15T03:58:35.068Z,78.48
2019-03-15T03:59:35.032Z,78.69
2019-03-15T04:00:35.025Z,78.28
2019-03-15T04:01:35.004Z,78.28
2019-03-15T04:02:34.993Z,78.89
2019-03-15T04:03:35.032Z,78.79
2019-03-15T04:04:34.975Z,79.00
2019-03-15T04:05:34.969Z,79.41
2019-03-15T04:06:34.953Z,79.41
2019-03-15T04:07:34.954Z,78.48
2019-03-15T04:08:34.950Z,79.00
2019-03-15T04:09:34.926Z,78.89
2019-03-15T04:10:34.905Z,78.79
2019-03-15T04:11:34.899Z,78.38
2019-03-15T04:12:34.882Z,78.52
2019-03-15T04:13:34.903Z,78.79
2019-03-15T04:14:34.859Z,78.69
2019-03-15T04:15:34.847Z,78.38
2019-03-15T04:16:34.847Z,78.38
2019-03-15T04:17:34.835Z,78.17
2019-03-15T04:18:34.837Z,78.38
2019-03-15T04:19:34.810Z,78.48
2019-03-15T04:20:34.791Z,78.21
2019-03-15T04:21:34.796Z,78.48
2019-03-15T04:22:34.777Z,78.72
2019-03-15T04:23:37.987Z,78.28
2019-03-15T04:24:34.751Z,78.38
2019-03-15T04:25:34.738Z,78.28
2019-03-15T04:26:34.732Z,78.48
2019-03-15T04:27:34.732Z,78.28
2019-03-15T04:28:34.767Z,77.76
2019-03-15T04:29:34.703Z,77.76
2019-03-15T04:30:34.679Z,76.83
2019-03-15T04:31:34.672Z,77.04
2019-03-15T04:32:34.660Z,76.63
2019-03-15T04:33:34.676Z,76.32
2019-03-15T04:34:34.638Z,76.01
2019-03-15T04:35:34.636Z,75.90
2019-03-15T04:36:34.624Z,75.90
2019-03-15T04:37:34.605Z,76.01
2019-03-15T04:38:34.614Z,76.32
2019-03-15T04:39:34.590Z,76.01
2019-03-15T04:40:34.570Z,76.21
2019-03-15T04:41:34.561Z,75.70
2019-03-15T04:42:34.552Z,75.60
2019-03-15T04:43:34.590Z,75.81
2019-03-15T04:44:34.573Z,75.39
2019-03-15T04:45:34.516Z,76.01
2019-03-15T04:46:34.506Z,75.81
2019-03-15T04:47:34.494Z,75.70
2019-03-15T04:48:34.488Z,75.90
2019-03-15T04:49:34.491Z,76.07
2019-03-15T04:50:34.460Z,76.21
2019-03-15T04:51:34.447Z,75.60
2019-03-15T04:52:34.441Z,76.11
2019-03-15T04:53:34.430Z,75.87
2019-03-15T04:54:34.439Z,75.77
2019-03-15T04:55:34.422Z,75.46
2019-03-15T04:56:34.428Z,74.95
2019-03-15T04:57:34.385Z,75.46
2019-03-15T04:58:34.372Z,74.53
2019-03-15T04:59:34.386Z,75.18
2019-03-15T05:00:34.351Z,75.29
2019-03-15T05:01:34.372Z,75.49
2019-03-15T05:02:34.346Z,75.60
2019-03-15T05:03:34.322Z,75.81
2019-03-15T05:04:34.342Z,75.70
2019-03-15T05:05:34.300Z,75.39
2019-03-15T05:06:34.320Z,75.70
2019-03-15T05:07:34.282Z,76.07
2019-03-15T05:08:34.265Z,75.97
2019-03-15T05:09:34.271Z,75.87
2019-03-15T05:10:34.239Z,75.49
2019-03-15T05:11:34.241Z,75.81
2019-03-15T05:12:34.220Z,76.18
2019-03-15T05:13:34.210Z,75.70
2019-03-15T05:14:34.226Z,75.81
2019-03-15T05:15:34.184Z,76.21
2019-03-15T05:16:34.173Z,75.60
2019-03-15T05:17:34.165Z,76.01
2019-03-15T05:18:34.152Z,76.01
2019-03-15T05:19:34.159Z,75.81
2019-03-15T05:20:34.155Z,75.90
2019-03-15T05:21:34.119Z,75.81
2019-03-15T05:22:34.108Z,75.81
2019-03-15T05:23:34.131Z,75.70
2019-03-15T05:24:34.106Z,76.01
2019-03-15T05:25:34.079Z,76.11
2019-03-15T05:26:34.057Z,76.32
2019-03-15T05:27:34.061Z,76.21
2019-03-15T05:28:34.050Z,76.32
2019-03-15T05:29:34.066Z,76.63
2019-03-15T05:30:34.528Z,76.42
2019-03-15T05:31:34.009Z,76.93
2019-03-15T05:32:33.993Z,76.73
2019-03-15T05:33:33.987Z,76.21
2019-03-15T05:34:33.994Z,76.63
2019-03-15T05:35:33.960Z,76.83
2019-03-15T05:36:33.951Z,76.83
2019-03-15T05:37:33.950Z,78.00
2019-03-15T05:38:35.027Z,77.86
2019-03-15T05:39:33.937Z,77.90
2019-03-15T05:40:33.932Z,78.52
2019-03-15T05:41:33.899Z,78.52
2019-03-15T05:42:33.889Z,78.41
2019-03-15T05:43:33.871Z,79.03
2019-03-15T05:44:33.887Z,78.93
2019-03-15T05:45:33.858Z,78.72
2019-03-15T05:46:33.851Z,79.24
2019-03-15T05:47:33.837Z,79.34
2019-03-15T05:48:33.823Z,79.24
2019-03-15T05:49:33.834Z,79.86
2019-03-15T05:50:33.805Z,80.37
2019-03-15T05:51:33.787Z,80.58
2019-03-15T05:52:33.782Z,81.09
2019-03-15T05:53:33.782Z,81.61
2019-03-15T05:54:33.781Z,82.74
2019-03-15T05:55:33.752Z,81.61
2019-03-15T05:56:33.743Z,81.81
2019-03-15T05:57:33.727Z,82.02
2019-03-15T05:58:33.711Z,81.71
2019-03-15T05:59:33.695Z,82.02
2019-03-15T06:00:33.706Z,81.96
2019-03-15T06:01:33.675Z,82.33
2019-03-15T06:02:33.668Z,82.89
2019-03-15T06:03:47.450Z,83.09
2019-03-15T06:04:34.637Z,82.98
2019-03-15T06:05:33.652Z,83.40
2019-03-15T06:06:33.623Z,83.19
2019-03-15T06:07:33.619Z,82.98
2019-03-15T06:08:33.603Z,82.68
2019-03-15T06:09:33.599Z,82.26
2019-03-15T06:10:33.606Z,82.78
2019-03-15T06:11:33.578Z,82.68
2019-03-15T06:12:33.560Z,81.75
2019-03-15T06:13:33.556Z,81.75
2019-03-15T06:14:33.592Z,81.96
2019-03-15T06:15:33.549Z,81.75
2019-03-15T06:16:33.512Z,82.23
2019-03-15T06:17:33.529Z,81.54
2019-03-15T06:18:33.494Z,81.51
2019-03-15T06:19:33.478Z,81.20
2019-03-15T06:20:33.488Z,81.20
2019-03-15T06:21:33.457Z,81.09
2019-03-15T06:22:33.449Z,80.58
2019-03-15T06:23:33.446Z,80.89
2019-03-15T06:24:33.421Z,80.79
2019-03-15T06:25:33.457Z,80.99
2019-03-15T06:26:33.407Z,80.68
2019-03-15T06:27:33.392Z,80.27
2019-03-15T06:28:33.382Z,79.86
2019-03-15T06:29:33.366Z,79.96
2019-03-15T06:30:33.378Z,79.75
2019-03-15T06:31:33.346Z,79.86
2019-03-15T06:32:33.336Z,79.93
2019-03-15T06:33:33.350Z,79.96
2019-03-15T06:34:33.308Z,79.96
2019-03-15T06:35:33.330Z,80.27
2019-03-15T06:36:33.288Z,80.23
2019-03-15T06:37:33.294Z,80.06
2019-03-15T06:38:33.744Z,79.14
2019-03-15T06:39:33.263Z,79.44
2019-03-15T06:40:33.266Z,79.34
2019-03-15T06:41:33.269Z,79.41
2019-03-15T06:42:33.227Z,79.41
2019-03-15T06:43:33.214Z,79.34
2019-03-15T06:44:33.200Z,79.41
2019-03-15T06:45:33.206Z,79.10
2019-03-15T06:46:33.191Z,80.13
2019-03-15T06:47:33.164Z,81.88
2019-03-15T06:48:33.160Z,81.05
2019-03-15T06:49:33.151Z,80.65
2019-03-15T06:50:33.153Z,79.27
2019-03-15T06:51:33.125Z,79.37
2019-03-15T06:52:33.111Z,79.37
2019-03-15T06:53:33.095Z,79.79
2019-03-15T06:54:33.098Z,78.65
2019-03-15T06:55:33.073Z,78.75
2019-03-15T06:56:33.096Z,77.89
2019-03-15T06:57:33.055Z,77.69
2019-03-15T06:58:33.051Z,76.76
2019-03-15T06:59:33.034Z,76.66
2019-03-15T07:00:33.079Z,76.66
2019-03-15T07:01:33.024Z,76.18
2019-03-15T07:02:32.996Z,76.28
2019-03-15T07:03:33.034Z,76.59
2019-03-15T07:04:32.972Z,77.21
2019-03-15T07:05:32.969Z,77.72
2019-03-15T07:06:32.974Z,77.62
2019-03-15T07:07:32.954Z,77.72
2019-03-15T07:08:32.933Z,77.86
2019-03-15T07:09:32.933Z,77.93
2019-03-15T07:10:32.950Z,77.72
2019-03-15T07:11:32.937Z,77.72
2019-03-15T07:12:32.895Z,77.42
2019-03-15T07:13:32.877Z,77.11
2019-03-15T07:14:32.862Z,77.42
2019-03-15T07:15:32.847Z,76.70
2019-03-15T07:16:32.926Z,76.79
2019-03-15T07:17:32.838Z,77.21
2019-03-15T07:18:32.819Z,77.21
2019-03-15T07:19:32.806Z,77.21
2019-03-15T07:20:32.809Z,76.70
2019-03-15T07:21:32.807Z,76.90
2019-03-15T07:22:32.790Z,76.18
2019-03-15T07:23:32.761Z,75.87
2019-03-15T07:24:32.755Z,76.28
2019-03-15T07:25:32.736Z,76.07
2019-03-15T07:26:32.768Z,75.77
2019-03-15T07:27:32.724Z,75.97
2019-03-15T07:28:32.710Z,76.18
2019-03-15T07:29:32.694Z,75.77
2019-03-15T07:30:32.689Z,75.77
2019-03-15T07:31:32.713Z,75.77
2019-03-15T07:32:32.653Z,75.35
2019-03-15T07:33:32.642Z,75.01
2019-03-15T07:34:32.640Z,74.33
2019-03-15T07:35:33.500Z,74.74
2019-03-15T07:36:32.641Z,75.56
2019-03-15T07:37:32.596Z,74.84
2019-03-15T07:38:32.594Z,75.12
2019-03-15T07:39:32.582Z,74.91
2019-03-15T07:40:32.571Z,74.70
2019-03-15T07:41:32.607Z,73.88
2019-03-15T07:42:32.595Z,74.91
2019-03-15T07:43:32.543Z,74.70
2019-03-15T07:44:32.519Z,74.19
2019-03-15T07:45:32.509Z,73.78
2019-03-15T07:46:32.516Z,74.40
2019-03-15T07:47:32.513Z,74.08
2019-03-15T07:48:32.496Z,73.78
2019-03-15T07:49:32.463Z,72.51
2019-03-15T07:50:32.451Z,72.51
2019-03-15T07:51:32.506Z,72.75
2019-03-15T07:52:32.450Z,72.44
2019-03-15T07:53:35.247Z,72.20
2019-03-15T07:54:37.889Z,72.24
2019-03-15T07:55:33.393Z,72.34
2019-03-15T07:56:32.389Z,72.34
2019-03-15T07:57:32.436Z,72.20
2019-03-15T07:58:33.547Z,72.51
2019-03-15T07:59:32.359Z,72.81
2019-03-15T08:00:32.339Z,72.51
2019-03-15T08:01:32.352Z,70.86
2019-03-15T08:02:32.327Z,71.28
2019-03-15T08:03:32.355Z,71.48
2019-03-15T08:04:32.292Z,71.58
2019-03-15T08:05:32.282Z,71.37
2019-03-15T08:06:35.020Z,71.58
2019-03-15T08:07:37.395Z,71.17
2019-03-15T08:08:33.364Z,71.58
2019-03-15T08:09:32.257Z,71.89
2019-03-15T08:10:32.266Z,71.48
2019-03-15T08:11:32.222Z,70.45
2019-03-15T08:12:32.217Z,70.62
2019-03-15T08:13:32.199Z,70.62
2019-03-15T08:14:32.187Z,70.73
2019-03-15T08:15:32.183Z,70.21
2019-03-15T08:16:34.441Z,70.32
2019-03-15T08:17:32.165Z,70.11
2019-03-15T08:18:32.185Z,70.11
2019-03-15T08:19:32.165Z,69.60
2019-03-15T08:20:32.133Z,69.49
2019-03-15T08:21:32.103Z,69.49
2019-03-15T08:22:32.134Z,69.49
2019-03-15T08:23:32.138Z,69.09
2019-03-15T08:24:32.068Z,68.57
2019-03-15T08:25:32.073Z,68.77
2019-03-15T08:26:32.115Z,67.95
2019-03-15T08:27:32.063Z,67.33
2019-03-15T08:28:32.022Z,67.95
2019-03-15T08:29:32.014Z,67.85
2019-03-15T08:30:32.004Z,67.61
2019-03-15T08:31:31.988Z,67.10
2019-03-15T08:32:32.025Z,67.44
2019-03-15T08:33:31.960Z,67.82
2019-03-15T08:34:31.961Z,67.71
2019-03-15T08:35:31.942Z,67.20
2019-03-15T08:36:31.954Z,67.30
2019-03-15T08:37:31.955Z,67.20
2019-03-15T08:38:31.908Z,67.61
2019-03-15T08:39:31.894Z,67.71
2019-03-15T08:40:31.895Z,67.71
2019-03-15T08:41:31.877Z,67.71
2019-03-15T08:42:34.534Z,67.61
2019-03-15T08:43:31.872Z,68.13
2019-03-15T08:44:31.856Z,68.13
2019-03-15T08:45:31.835Z,68.43
2019-03-15T08:46:31.834Z,69.15
2019-03-15T08:47:31.830Z,68.85
2019-03-15T08:48:32.109Z,69.15
2019-03-15T08:49:31.807Z,68.30
2019-03-15T08:50:31.770Z,68.61
2019-03-15T08:51:31.762Z,69.15
2019-03-15T08:52:31.749Z,69.46
2019-03-15T08:53:31.770Z,69.46
2019-03-15T08:54:31.740Z,68.85
2019-03-15T08:55:31.760Z,69.15
2019-03-15T08:56:31.718Z,68.85
2019-03-15T08:57:31.692Z,69.46
2019-03-15T08:58:31.702Z,69.15
2019-03-15T08:59:31.683Z,69.15
2019-03-15T09:00:31.663Z,68.85
2019-03-15T09:01:31.653Z,68.81
2019-03-15T09:02:31.647Z,69.46
2019-03-15T09:03:34.341Z,69.15
2019-03-15T09:04:31.649Z,69.67
2019-03-15T09:05:31.619Z,69.46
2019-03-15T09:06:31.625Z,69.56
2019-03-15T09:07:31.592Z,69.56
2019-03-15T09:08:31.606Z,69.46
2019-03-15T09:09:31.599Z,69.56
2019-03-15T09:10:31.580Z,69.98
2019-03-15T09:11:31.539Z,69.53
2019-03-15T09:12:31.546Z,69.64
2019-03-15T09:13:31.565Z,69.53
2019-03-15T09:14:31.510Z,69.53
2019-03-15T09:15:31.501Z,70.25
2019-03-15T09:16:31.485Z,69.74
2019-03-15T09:17:31.474Z,69.43
2019-03-15T09:18:31.485Z,69.64
2019-03-15T09:19:31.467Z,69.29
2019-03-15T09:20:31.443Z,68.78
2019-03-15T09:21:31.460Z,69.19
2019-03-15T09:22:31.419Z,69.70
2019-03-15T09:23:31.437Z,69.81
2019-03-15T09:24:31.398Z,68.78
2019-03-15T09:25:31.394Z,68.27
2019-03-15T09:26:31.374Z,67.93
2019-03-15T09:27:31.374Z,68.13
2019-03-15T09:28:31.393Z,68.03
2019-03-15T09:29:31.355Z,67.72
2019-03-15T09:30:31.330Z,67.93
2019-03-15T09:31:46.427Z,67.41
2019-03-15T09:32:32.337Z,67.41
2019-03-15T09:33:31.403Z,67.62
2019-03-15T09:34:31.296Z,67.62
2019-03-15T09:35:31.313Z,67.52
2019-03-15T09:36:33.887Z,67.62
2019-03-15T09:37:31.256Z,67.72
2019-03-15T09:38:31.278Z,67.72
2019-03-15T09:39:31.267Z,67.62
2019-03-15T09:40:31.215Z,67.32
2019-03-15T09:41:39.082Z,67.21
2019-03-15T09:42:32.198Z,67.28
2019-03-15T09:43:31.221Z,66.97
2019-03-15T09:44:31.181Z,66.97
2019-03-15T09:45:31.180Z,67.38
2019-03-15T09:46:31.151Z,67.18
2019-03-15T09:47:31.143Z,66.60
2019-03-15T09:48:31.146Z,66.87
2019-03-15T09:49:31.119Z,66.80
2019-03-15T09:50:39.993Z,67.32
2019-03-15T09:51:32.101Z,66.97
2019-03-15T09:52:31.096Z,67.08
2019-03-15T09:53:31.107Z,67.00
2019-03-15T09:54:31.063Z,67.52
2019-03-15T09:55:33.147Z,67.00
2019-03-15T09:56:31.048Z,67.52
2019-03-15T09:57:31.026Z,67.11
2019-03-15T09:58:31.021Z,65.74
2019-03-15T09:59:31.033Z,65.57
2019-03-15T10:00:31.044Z,65.95
2019-03-15T10:01:35.164Z,65.84
2019-03-15T10:02:31.048Z,66.60
2019-03-15T10:03:31.048Z,66.16
2019-03-15T10:04:31.010Z,66.60
2019-03-15T10:05:30.988Z,66.16
2019-03-15T10:06:30.958Z,65.84
2019-03-15T10:07:38.342Z,65.74
2019-03-15T10:08:31.917Z,65.44
2019-03-15T10:09:44.762Z,65.54
2019-03-15T10:10:31.938Z,65.64
2019-03-15T10:11:30.902Z,66.12
2019-03-15T10:12:30.978Z,65.48
2019-03-15T10:13:31.601Z,65.58
2019-03-15T10:14:30.933Z,64.07
2019-03-15T10:15:30.932Z,63.22
2019-03-15T10:16:30.841Z,63.84
2019-03-15T10:17:30.833Z,64.04
2019-03-15T10:18:30.868Z,64.14
2019-03-15T10:19:30.867Z,64.04
2019-03-15T10:20:30.796Z,64.12
2019-03-15T10:21:30.797Z,64.12
2019-03-15T10:22:30.780Z,63.70
2019-03-15T10:23:30.782Z,63.50
2019-03-15T10:24:30.800Z,63.29
2019-03-15T10:25:30.755Z,63.29
2019-03-15T10:26:30.741Z,63.50
2019-03-15T10:27:30.756Z,62.99
2019-03-15T10:28:30.861Z,62.88
2019-03-15T10:29:30.757Z,62.58
2019-03-15T10:30:30.717Z,63.09
2019-03-15T10:31:30.704Z,63.60
2019-03-15T10:32:30.669Z,63.09
2019-03-15T10:33:30.665Z,63.09
2019-03-15T10:34:31.146Z,62.78
2019-03-15T10:35:30.614Z,63.29
2019-03-15T10:36:30.626Z,63.29
2019-03-15T10:37:30.602Z,63.70
2019-03-15T10:38:30.646Z,62.78
2019-03-15T10:39:30.661Z,63.09
2019-03-15T10:40:30.613Z,63.64
2019-03-15T10:41:30.561Z,62.99
2019-03-15T10:42:30.636Z,63.43
2019-03-15T10:43:30.540Z,63.50
2019-03-15T10:44:30.548Z,63.53
2019-03-15T10:45:30.499Z,64.04
2019-03-15T10:46:30.507Z,63.94
2019-03-15T10:47:30.524Z,63.84
2019-03-15T10:48:30.497Z,63.32
2019-03-15T10:49:31.036Z,63.29
2019-03-15T10:50:30.466Z,63.81
2019-03-15T10:51:30.522Z,64.01
2019-03-15T10:52:30.447Z,64.01
2019-03-15T10:53:30.450Z,63.40
2019-03-15T10:54:30.538Z,63.60
2019-03-15T10:55:30.431Z,63.81
2019-03-15T10:56:30.425Z,63.70
2019-03-15T10:57:30.390Z,62.78
2019-03-15T10:58:30.385Z,62.27
2019-03-15T10:59:30.411Z,63.81
2019-03-15T11:00:30.362Z,64.12
2019-03-15T11:01:30.352Z,62.78
2019-03-15T11:02:30.327Z,62.88
2019-03-15T11:03:30.329Z,62.88
2019-03-15T11:04:30.328Z,62.88
2019-03-15T11:05:30.272Z,63.20
2019-03-15T11:06:30.267Z,62.99
2019-03-15T11:07:30.250Z,62.68
2019-03-15T11:08:30.251Z,62.78
2019-03-15T11:09:30.311Z,63.09
2019-03-15T11:10:30.263Z,63.70
2019-03-15T11:11:30.213Z,63.70
2019-03-15T11:12:30.203Z,63.57
2019-03-15T11:13:30.194Z,62.58
2019-03-15T11:14:30.209Z,62.27
2019-03-15T11:15:30.166Z,62.35
2019-03-15T11:16:30.164Z,61.55
2019-03-15T11:17:30.240Z,61.52
2019-03-15T11:18:30.128Z,61.73
2019-03-15T11:19:30.124Z,61.63
2019-03-15T11:20:30.130Z,61.63
2019-03-15T11:21:30.087Z,61.73
2019-03-15T11:22:30.084Z,61.32
2019-03-15T11:23:30.071Z,60.91
2019-03-15T11:24:30.062Z,61.63
2019-03-15T11:25:30.083Z,61.32
2019-03-15T11:26:30.059Z,61.63
2019-03-15T11:27:30.030Z,61.19
2019-03-15T11:28:30.030Z,60.68
2019-03-15T11:29:30.003Z,60.68
2019-03-15T11:30:30.061Z,60.58
2019-03-15T11:31:29.977Z,59.94
2019-03-15T11:32:29.966Z,58.68
2019-03-15T11:33:29.967Z,56.71
2019-03-15T11:34:29.953Z,56.68
2019-03-15T11:35:29.939Z,56.48
2019-03-15T11:36:29.929Z,56.27
2019-03-15T11:37:29.912Z,56.20
2019-03-15T11:38:29.904Z,58.25
2019-03-15T11:39:29.905Z,56.61
2019-03-15T11:40:29.902Z,56.33
2019-03-15T11:41:29.864Z,57.04
2019-03-15T11:42:29.854Z,56.94
2019-03-15T11:43:29.850Z,56.74
2019-03-15T11:44:29.838Z,56.63
2019-03-15T11:45:29.856Z,57.97
2019-03-15T11:46:29.814Z,57.25
2019-03-15T11:47:29.816Z,57.97
2019-03-15T11:48:29.825Z,57.68
2019-03-15T11:49:29.781Z,57.89
2019-03-15T11:50:29.790Z,58.91
2019-03-15T11:51:29.757Z,58.09
2019-03-15T11:52:29.774Z,58.20
2019-03-15T11:53:29.734Z,58.48
2019-03-15T11:54:29.729Z,58.50
2019-03-15T11:55:29.731Z,58.27
2019-03-15T11:56:29.704Z,57.97
2019-03-15T11:57:29.696Z,58.48
2019-03-15T11:58:29.679Z,58.89
2019-03-15T11:59:29.666Z,58.98
2019-03-15T12:00:29.664Z,58.37
2019-03-15T12:01:29.667Z,57.97
2019-03-15T12:02:29.629Z,58.27
2019-03-15T12:03:29.638Z,57.35
2019-03-15T12:04:29.628Z,57.76
2019-03-15T12:05:29.621Z,58.27
2019-03-15T12:06:29.586Z,58.17
2019-03-15T12:07:29.585Z,58.58
2019-03-15T12:08:29.575Z,58.78
2019-03-15T12:09:29.557Z,58.17
2019-03-15T12:10:29.575Z,57.97
2019-03-15T12:11:29.529Z,58.27
2019-03-15T12:12:29.520Z,57.66
2019-03-15T12:13:29.522Z,57.66
2019-03-15T12:14:40.460Z,58.37
2019-03-15T12:15:30.517Z,57.66
2019-03-15T12:16:29.485Z,58.37
2019-03-15T12:17:29.465Z,57.97
2019-03-15T12:18:29.450Z,58.27
2019-03-15T12:19:29.494Z,58.27
2019-03-15T12:20:29.445Z,58.27
2019-03-15T12:21:29.413Z,58.27
2019-03-15T12:22:29.406Z,58.27
2019-03-15T12:23:29.396Z,58.50
2019-03-15T12:24:29.392Z,58.40
2019-03-15T12:25:31.392Z,57.99
2019-03-15T12:26:39.769Z,58.37
2019-03-15T12:27:30.433Z,57.99
2019-03-15T12:28:29.354Z,58.09
2019-03-15T12:29:29.325Z,58.09
2019-03-15T12:30:29.348Z,58.20
2019-03-15T12:31:29.312Z,58.29
2019-03-15T12:32:29.297Z,57.99
2019-03-15T12:33:29.301Z,58.50
2019-03-15T12:34:29.277Z,58.20
2019-03-15T12:35:29.287Z,58.29
2019-03-15T12:36:29.245Z,58.02
2019-03-15T12:37:29.238Z,58.40
2019-03-15T12:38:29.226Z,58.81
2019-03-15T12:39:29.230Z,59.25
2019-03-15T12:40:29.229Z,59.86
2019-03-15T12:41:29.194Z,59.66
2019-03-15T12:42:29.201Z,59.25
2019-03-15T12:43:29.171Z,60.27
2019-03-15T12:44:29.164Z,60.71
2019-03-15T12:45:29.150Z,61.22
2019-03-15T12:46:29.163Z,61.63
2019-03-15T12:47:29.136Z,61.73
2019-03-15T12:48:29.118Z,62.04
2019-03-15T12:49:29.107Z,62.58
2019-03-15T12:50:29.095Z,63.29
2019-03-15T12:51:32.329Z,63.70
2019-03-15T12:52:29.069Z,64.01